KCMX/CMX METAR and TAF weather

Enter ICAO airport designator
Station Type Date Time Source
KCMX METAR 2021/08/05 03:53 UTC NOAA

KCMX 050353Z AUTO 25008KT 10SM CLR 24/16 A3001 RMK AO2 SLP154 T02390156


Station Type Date Time Source
KCMX Decoded METAR 2021/08/05 03:53 UTC NOAA

HANCOCK HOUGHTON CTY. MEMO, MI, United States (KCMX) 47-10N 088-29W 326M
Aug 04, 2021 - 11:53 PM EDT / 2021.08.05 0353 UTC
Wind: from the WSW (250 degrees) at 9 MPH (8 KT):0
Visibility: 10 mile(s):0
Sky conditions: clear
Temperature: 75.0 F (23.9 C)
Dew Point: 60.1 F (15.6 C)
Relative Humidity: 59%
Pressure (altimeter): 30.01 in. Hg (1016 hPa)
ob: KCMX 050353Z AUTO 25008KT 10SM CLR 24/16 A3001 RMK AO2 SLP154 T02390156
cycle: 4

Station Type Date Time Source
KCMX TAF 2021/08/04 18:42 UTC NOAA

TAF KCMX 041738Z 0418/0518 26011G19KT 6SM FU SKC
FM042200 26009KT 6SM FU FEW200
FM051600 22010G18KT P6SM BKN120

Example: see airport list